Pennville, Indiana
Current Conditions -  °F | °C
As of 3:24 AM on Monday 24 Nov 2014 (Local Time) from KMIE Reporting Station
Light Rain Light Rain  
Wind Chill: 13°   Ceiling: 900
Heat Index: 13°   Visibility: 6mi
Dew Point: 12°   Wind: 16mph
Humidity: 93%   Direction: 210°SSW
Pressure: 29.22"   Gusts: 23mph
Location:  40.49°N, 85.15°W
Report Text: KMIE 240824Z AUTO 21014G20KT 6SM -RA BR OVC009 13/12 A2922 RMK AO2 P0000 T01330122
Loading
Personal Weather Stations






























Interactive Weather Map New forecast layout! Learn more

10-Day Weather Forecast

Advertisements
Track Severe Weather on mobile